Barhom II — 5IM534 — position and weather

sailwx.info

Track history (hours):
 
Tides and Currents Weather Stations Pressure Air Temp Water Temp Dewpoint Dewpoint Depression Visibility Wind Speed Wind Dir Waves Ship Positions

Barhom II

Last reported at 2014-Sep-29 11:06 UTC. Time now 2014-Sep-30 22:01 UTC.
Position N 37°31' W 000°60'.

Length 83 m; draft 4.5 m.

Type: Cargo ship. MMSI: 677043400.

Date/timePositionNaut miles runAvg speedWind from/ knotsBaromVisibWave heightAir tempDewpointWater temp
2014-Sep-29 11:06N 37°31' W 000°60'5 9.6
2014-Sep-29 10:34N 37°30' W 000°53'1110.3
2014-Sep-29 09:32N 37°29' W 000°40'1010.4
2014-Sep-29 08:33N 37°27' W 000°28'27610.2
2014-Sep-28 05:22N 37°16' E 005°20'  
2014-Sep-24 18:31N 32°22' E 015°13'0 0.0
2014-Sep-24 17:33N 32°22' E 015°13'0 0.0
2014-Sep-24 16:33N 32°22' E 015°13'239 8.2
2014-Sep-23 11:32N 35°30' E 012°15'3010.0
2014-Sep-23 08:33N 35°56' E 011°58'1010.3
2014-Sep-23 07:33N 36°06' E 011°54'1010.2
2014-Sep-23 06:33N 36°16' E 011°50'1110.4
2014-Sep-23 05:32N 36°26' E 011°47'6210.3
2014-Sep-22 23:31N 37°21' E 011°11'1111.1
2014-Sep-22 22:31N 37°26' E 010°58'1311.0
2014-Sep-22 21:22N 37°28' E 010°43'911.2
2014-Sep-22 20:34N 37°31' E 010°32'1111.2
2014-Sep-22 19:33N 37°33' E 010°18'1111.2
2014-Sep-22 18:33N 37°34' E 010°04'1111.2
2014-Sep-22 17:33N 37°32' E 009°50'1111.0
2014-Sep-22 16:33N 37°29' E 009°37'1110.8
2014-Sep-22 15:33N 37°26' E 009°23'1110.6
2014-Sep-22 14:32N 37°24' E 009°10'1110.4
2014-Sep-22 13:28N 37°21' E 008°57'910.4
2014-Sep-22 12:33N 37°18' E 008°45'3510.2
2014-Sep-22 09:07N 37°16' E 008°01'6010.8
2014-Sep-22 03:32N 37°16' E 006°45'6210.0
2014-Sep-21 21:18N 37°19' E 005°28'810.4
2014-Sep-21 20:31N 37°20' E 005°17'1110.8
2014-Sep-21 19:32N 37°20' E 005°04'2210.8
2014-Sep-21 17:32N 37°21' E 004°37'1111.2
2014-Sep-21 16:31N 37°22' E 004°22'1111.3
2014-Sep-21 15:33N 37°24' E 004°09'1110.9
2014-Sep-21 14:33N 37°24' E 003°55'1010.2
2014-Sep-21 13:33N 37°23' E 003°42'1010.0
2014-Sep-21 12:33N 37°23' E 003°30'1110.3
2014-Sep-21 11:32N 37°23' E 003°17'1010.2
2014-Sep-21 10:33N 37°23' E 003°04'1110.2
2014-Sep-21 09:26N 37°23' E 002°50'9 9.7
2014-Sep-21 08:33N 37°24' E 002°39'10 9.8
2014-Sep-21 07:30N 37°24' E 002°26'9 9.9
2014-Sep-21 06:33N 37°24' E 002°14'1010.0
2014-Sep-21 05:33N 37°23' E 002°02'4510.4
2014-Sep-21 01:15N 37°25' E 001°05'1810.6
2014-Sep-20 23:32N 37°26' E 000°42'3510.5
2014-Sep-20 20:14N 37°27' W 000°01'710.3
2014-Sep-20 19:33N 37°27' W 000°10'1110.5
2014-Sep-20 18:31N 37°28' W 000°24'1110.5
2014-Sep-20 17:29N 37°30' W 000°37'1010.4
2014-Sep-20 16:28N 37°31' W 000°50'  
Track history (hours):
 
Tides and Currents Weather Stations Pressure Air Temp Water Temp Dewpoint Dewpoint Depression Visibility Wind Speed Wind Dir Waves Ship Positions

Barhom II

Last reported at 2014-Sep-29 11:06 UTC. Time now 2014-Sep-30 22:01 UTC.
Position N 37°31' W 000°60'.

Length 83 m; draft 4.5 m.

Type: Cargo ship. MMSI: 677043400.

Date/timePositionNaut miles runAvg speedWind from/ knotsBaromVisibWave heightAir tempDewpointWater temp
2014-Sep-29 11:06N 37°31' W 000°60'5 9.6
2014-Sep-29 10:34N 37°30' W 000°53'1110.3
2014-Sep-29 09:32N 37°29' W 000°40'1010.4
2014-Sep-29 08:33N 37°27' W 000°28'27610.2
2014-Sep-28 05:22N 37°16' E 005°20'  
2014-Sep-24 18:31N 32°22' E 015°13'0 0.0
2014-Sep-24 17:33N 32°22' E 015°13'0 0.0
2014-Sep-24 16:33N 32°22' E 015°13'239 8.2
2014-Sep-23 11:32N 35°30' E 012°15'3010.0
2014-Sep-23 08:33N 35°56' E 011°58'1010.3
2014-Sep-23 07:33N 36°06' E 011°54'1010.2
2014-Sep-23 06:33N 36°16' E 011°50'1110.4
2014-Sep-23 05:32N 36°26' E 011°47'6210.3
2014-Sep-22 23:31N 37°21' E 011°11'1111.1
2014-Sep-22 22:31N 37°26' E 010°58'1311.0
2014-Sep-22 21:22N 37°28' E 010°43'911.2
2014-Sep-22 20:34N 37°31' E 010°32'1111.2
2014-Sep-22 19:33N 37°33' E 010°18'1111.2
2014-Sep-22 18:33N 37°34' E 010°04'1111.2
2014-Sep-22 17:33N 37°32' E 009°50'1111.0
2014-Sep-22 16:33N 37°29' E 009°37'1110.8
2014-Sep-22 15:33N 37°26' E 009°23'1110.6
2014-Sep-22 14:32N 37°24' E 009°10'1110.4
2014-Sep-22 13:28N 37°21' E 008°57'910.4
2014-Sep-22 12:33N 37°18' E 008°45'3510.2
2014-Sep-22 09:07N 37°16' E 008°01'6010.8
2014-Sep-22 03:32N 37°16' E 006°45'6210.0
2014-Sep-21 21:18N 37°19' E 005°28'810.4
2014-Sep-21 20:31N 37°20' E 005°17'1110.8
2014-Sep-21 19:32N 37°20' E 005°04'2210.8
2014-Sep-21 17:32N 37°21' E 004°37'1111.2
2014-Sep-21 16:31N 37°22' E 004°22'1111.3
2014-Sep-21 15:33N 37°24' E 004°09'1110.9
2014-Sep-21 14:33N 37°24' E 003°55'1010.2
2014-Sep-21 13:33N 37°23' E 003°42'1010.0
2014-Sep-21 12:33N 37°23' E 003°30'1110.3
2014-Sep-21 11:32N 37°23' E 003°17'1010.2
2014-Sep-21 10:33N 37°23' E 003°04'1110.2
2014-Sep-21 09:26N 37°23' E 002°50'9 9.7
2014-Sep-21 08:33N 37°24' E 002°39'10 9.8
2014-Sep-21 07:30N 37°24' E 002°26'9 9.9
2014-Sep-21 06:33N 37°24' E 002°14'1010.0
2014-Sep-21 05:33N 37°23' E 002°02'4510.4
2014-Sep-21 01:15N 37°25' E 001°05'1810.6
2014-Sep-20 23:32N 37°26' E 000°42'3510.5
2014-Sep-20 20:14N 37°27' W 000°01'710.3
2014-Sep-20 19:33N 37°27' W 000°10'1110.5
2014-Sep-20 18:31N 37°28' W 000°24'1110.5
2014-Sep-20 17:29N 37°30' W 000°37'1010.4
2014-Sep-20 16:28N 37°31' W 000°50'  

Dump ship's entire track history